Time;durP1;ratioP1;P1;durP2;ratioP2;P2;SDS_P1;SDS_P2;PMS_P1;PMS_P2;Temp;Humidity;BMP_temperature;BMP_pressure;BME280_temperature;BME280_humidity;BME280_pressure;Samples;Min_cycle;Max_cycle;Signal;HPM_P1;HPM_P2
2023/07/16 00:00:25;;;;;;;0.70;0.35;;;;;;;39.56;12.88;100735.03;4951433;28;20655;-80
2023/07/16 00:02:53;;;;;;;0.90;0.70;;;;;;;39.59;13.21;100737.47;4948464;28;20103;-81
2023/07/16 00:05:26;;;;;;;2.05;0.70;;;;;;;39.62;13.69;100731.75;4955210;28;20047;-81
2023/07/16 00:07:54;;;;;;;1.52;0.70;;;;;;;39.61;13.68;100732.75;4956591;28;20051;-84
2023/07/16 00:10:23;;;;;;;0.82;0.65;;;;;;;39.59;14.70;100734.75;4954412;28;20061;-78
2023/07/16 00:12:51;;;;;;;1.13;0.55;;;;;;;39.51;14.40;100726.47;4953840;28;20105;-79
2023/07/16 00:15:20;;;;;;;1.80;0.70;;;;;;;39.36;15.17;100731.44;4958506;28;20071;-82
2023/07/16 00:17:49;;;;;;;1.73;0.60;;;;;;;39.30;15.35;100730.16;4953081;28;20066;-81
2023/07/16 00:20:18;;;;;;;1.90;0.85;;;;;;;39.02;15.07;100720.19;4955128;28;20138;-82
2023/07/16 00:22:48;;;;;;;1.00;0.60;;;;;;;38.87;16.12;100734.06;4953789;28;20051;-83
2023/07/16 00:25:16;;;;;;;1.30;0.77;;;;;;;38.92;15.91;100731.84;4952171;28;20107;-79
2023/07/16 00:27:45;;;;;;;1.02;0.90;;;;;;;38.97;15.10;100728.72;4954423;28;20090;-77
2023/07/16 00:30:14;;;;;;;1.48;0.98;;;;;;;38.94;15.88;100729.84;4953061;28;20059;-78
2023/07/16 00:32:42;;;;;;;1.40;0.80;;;;;;;38.84;16.14;100726.22;4955668;28;20039;-79
2023/07/16 00:35:11;;;;;;;1.60;0.80;;;;;;;38.77;16.20;100722.38;4953865;28;20099;-83
2023/07/16 00:37:39;;;;;;;1.05;0.70;;;;;;;38.84;16.70;100722.66;4953684;28;20067;-83
2023/07/16 00:40:11;;;;;;;1.10;0.82;;;;;;;38.90;16.68;100727.53;4952095;28;20047;-80
2023/07/16 00:42:40;;;;;;;3.20;0.93;;;;;;;38.90;17.11;100728.38;4952360;28;20076;-82
2023/07/16 00:45:15;;;;;;;1.13;0.80;;;;;;;38.83;17.13;100729.94;4953464;28;20417;-81
2023/07/16 00:47:44;;;;;;;2.00;1.00;;;;;;;38.70;17.33;100723.91;4948834;28;20107;-84
2023/07/16 00:50:13;;;;;;;1.00;0.88;;;;;;;38.57;17.35;100726.00;4952287;28;20063;-80
2023/07/16 00:52:44;;;;;;;0.63;0.60;;;;;;;38.40;17.19;100720.22;4953529;28;20093;-79
2023/07/16 00:55:14;;;;;;;4.68;0.85;;;;;;;38.23;16.83;100710.91;4955054;28;20106;-78
2023/07/16 00:57:43;;;;;;;4.10;0.98;;;;;;;38.07;17.67;100719.53;4955098;28;20151;-82
2023/07/16 01:00:13;;;;;;;0.95;0.80;;;;;;;37.95;17.13;100717.84;4952666;28;20073;-81
2023/07/16 01:02:41;;;;;;;0.98;0.68;;;;;;;37.90;18.17;100722.78;4949671;28;20555;-80
2023/07/16 01:05:10;;;;;;;2.20;0.90;;;;;;;37.80;18.61;100719.16;4954410;28;20746;-79
2023/07/16 01:07:44;;;;;;;1.67;1.10;;;;;;;37.68;18.39;100708.44;4954120;28;20058;-83
2023/07/16 01:10:15;;;;;;;1.40;0.75;;;;;;;37.57;18.62;100708.50;4956112;28;20059;-83
2023/07/16 01:12:44;;;;;;;1.58;1.00;;;;;;;37.51;18.84;100701.75;4953445;28;20119;-79
2023/07/16 01:15:12;;;;;;;0.73;0.73;;;;;;;37.42;18.47;100701.66;4954173;28;20462;-80
2023/07/16 01:17:41;;;;;;;1.05;0.80;;;;;;;37.28;18.68;100711.78;4954121;28;20628;-79
2023/07/16 01:20:11;;;;;;;1.55;0.88;;;;;;;37.19;19.55;100712.56;4952674;28;20051;-79
2023/07/16 01:22:59;;;;;;;2.30;0.88;;;;;;;37.04;19.09;100713.78;4952170;28;20063;-77
2023/07/16 01:25:52;;;;;;;5.00;0.77;;;;;;;36.84;19.72;100719.00;4953452;28;20059;-80
2023/07/16 01:28:40;;;;;;;1.00;0.77;;;;;;;36.69;20.07;100714.84;4955331;28;20107;-81
2023/07/16 01:31:14;;;;;;;2.55;0.75;;;;;;;36.57;19.85;100716.69;4950294;28;20058;-79
2023/07/16 01:33:43;;;;;;;1.77;0.90;;;;;;;36.44;20.45;100706.03;4952502;28;20054;-83
2023/07/16 01:36:13;;;;;;;4.07;1.30;;;;;;;36.28;20.22;100700.16;4951953;28;20047;-78
2023/07/16 01:38:44;;;;;;;1.52;0.90;;;;;;;36.19;20.14;100703.56;4954218;28;20134;-81
2023/07/16 01:41:13;;;;;;;4.60;0.98;;;;;;;36.13;20.36;100698.69;4952112;28;20055;-83
2023/07/16 01:43:42;;;;;;;2.72;0.90;;;;;;;36.09;20.17;100719.59;4948142;28;20091;-80
2023/07/16 01:46:13;;;;;;;1.92;1.02;;;;;;;36.16;20.70;100717.31;4946302;28;20051;-79
2023/07/16 01:48:42;;;;;;;2.00;0.90;;;;;;;36.18;20.26;100709.97;4952229;28;20584;-81
2023/07/16 01:51:13;;;;;;;1.27;0.70;;;;;;;36.27;21.39;100714.63;4954328;28;20047;-83
2023/07/16 01:53:42;;;;;;;2.03;1.15;;;;;;;36.31;20.79;100721.47;4951399;28;20081;-85
2023/07/16 01:56:11;;;;;;;3.10;0.73;;;;;;;36.30;20.77;100711.66;4953426;28;20092;-81
2023/07/16 01:58:39;;;;;;;2.35;1.05;;;;;;;36.33;20.87;100716.84;4949085;28;20107;-83
2023/07/16 02:01:08;;;;;;;2.35;1.00;;;;;;;36.29;21.54;100718.06;4951257;28;20469;-79
2023/07/16 02:03:38;;;;;;;4.00;1.17;;;;;;;36.27;20.83;100725.38;4950916;28;20708;-79
2023/07/16 02:06:06;;;;;;;2.90;0.82;;;;;;;36.28;21.07;100721.69;4953251;28;20047;-79
2023/07/16 02:08:35;;;;;;;2.03;0.90;;;;;;;36.30;20.94;100729.69;4951580;28;20551;-80
2023/07/16 02:11:04;;;;;;;1.27;1.08;;;;;;;36.29;21.35;100723.44;4953099;28;20110;-77
2023/07/16 02:13:34;;;;;;;2.42;1.00;;;;;;;36.27;21.37;100731.63;4955819;28;20051;-78
2023/07/16 02:16:02;;;;;;;4.00;0.90;;;;;;;36.25;21.21;100732.72;4955164;28;20055;-82
2023/07/16 02:18:31;;;;;;;2.78;0.90;;;;;;;36.21;21.82;100736.66;4950791;28;20540;-81
2023/07/16 02:21:02;;;;;;;1.52;0.90;;;;;;;36.10;21.75;100737.44;4954111;28;20039;-80
2023/07/16 02:23:30;;;;;;;2.20;0.77;;;;;;;36.02;22.09;100727.28;4952825;28;20048;-80
2023/07/16 02:26:01;;;;;;;1.48;0.93;;;;;;;35.92;21.94;100720.91;4955616;28;20042;-86
2023/07/16 02:28:30;;;;;;;2.67;0.80;;;;;;;35.88;22.15;100732.91;4950207;28;20047;-84
2023/07/16 02:30:58;;;;;;;1.10;0.80;;;;;;;35.78;22.21;100721.09;4948591;28;20051;-80
2023/07/16 02:33:27;;;;;;;2.10;1.20;;;;;;;35.70;22.24;100720.84;4942609;28;20090;-81
2023/07/16 02:35:55;;;;;;;1.35;1.13;;;;;;;35.60;22.70;100721.53;4947378;28;20058;-85
2023/07/16 02:38:26;;;;;;;1.70;0.88;;;;;;;35.53;21.70;100722.97;4944900;28;20533;-81
2023/07/16 02:40:54;;;;;;;2.83;0.90;;;;;;;35.44;22.10;100734.44;4946581;28;20063;-82
2023/07/16 02:43:23;;;;;;;4.15;0.90;;;;;;;35.33;22.32;100735.25;4945809;28;20059;-84
2023/07/16 02:45:51;;;;;;;7.82;1.08;;;;;;;35.22;22.18;100738.72;4949198;28;20568;-79
2023/07/16 02:48:20;;;;;;;3.85;0.85;;;;;;;35.13;22.34;100739.41;4950240;28;20557;-84
2023/07/16 02:50:51;;;;;;;1.88;0.98;;;;;;;35.00;21.86;100755.56;4951540;28;20047;-86
2023/07/16 02:53:19;;;;;;;1.67;1.03;;;;;;;34.83;22.30;100756.78;4945437;28;20059;-89
2023/07/16 02:55:50;;;;;;;3.30;1.05;;;;;;;34.72;22.65;100762.06;4952182;28;20289;-78
2023/07/16 02:58:19;;;;;;;1.55;0.90;;;;;;;34.58;22.74;100763.03;4951148;28;20047;-77
2023/07/16 03:00:50;;;;;;;1.58;0.80;;;;;;;34.42;22.65;100765.94;4949244;28;20047;-82
2023/07/16 03:03:18;;;;;;;1.10;0.75;;;;;;;34.27;22.43;100772.44;4948220;28;20043;-80
2023/07/16 03:05:47;;;;;;;2.20;0.80;;;;;;;34.09;22.92;100771.00;4951451;28;20059;-79
2023/07/16 03:08:15;;;;;;;1.73;1.08;;;;;;;33.94;23.09;100764.84;4944865;28;20079;-85
2023/07/16 03:10:44;;;;;;;3.75;0.90;;;;;;;33.80;23.12;100761.25;4951616;28;20047;-87
2023/07/16 03:13:14;;;;;;;2.17;1.10;;;;;;;33.62;23.25;100753.59;4950722;28;20055;-84
2023/07/16 03:15:43;;;;;;;1.83;1.05;;;;;;;33.45;23.16;100757.41;4945888;28;20544;-76
2023/07/16 03:18:11;;;;;;;1.35;0.90;;;;;;;33.19;23.21;100754.59;4947128;28;20138;-83
2023/07/16 03:20:39;;;;;;;1.52;1.25;;;;;;;33.05;23.30;100758.16;4950105;28;20051;-81
2023/07/16 03:23:08;;;;;;;1.20;0.90;;;;;;;32.91;23.32;100758.19;4947688;28;20071;-81
2023/07/16 03:25:39;;;;;;;1.88;1.08;;;;;;;32.66;23.21;100740.13;4949419;28;20095;-81
2023/07/16 03:28:07;;;;;;;3.03;1.00;;;;;;;32.61;23.13;100750.28;4951893;28;20047;-81
2023/07/16 03:30:37;;;;;;;1.75;1.00;;;;;;;32.38;23.47;100749.00;4951253;28;20051;-81
2023/07/16 03:33:06;;;;;;;3.45;1.00;;;;;;;32.24;23.38;100757.88;4948529;28;20495;-81
2023/07/16 03:35:35;;;;;;;1.40;0.80;;;;;;;32.05;23.41;100753.66;4949010;28;20059;-86
2023/07/16 03:38:05;;;;;;;3.75;1.30;;;;;;;31.86;23.36;100743.16;4946975;28;20118;-84
2023/07/16 03:40:33;;;;;;;2.42;1.00;;;;;;;31.70;23.50;100747.69;4944285;28;20044;-82
2023/07/16 03:43:02;;;;;;;1.92;1.02;;;;;;;31.50;23.21;100743.53;4941768;28;20055;-84
2023/07/16 03:45:31;;;;;;;1.88;0.90;;;;;;;31.29;23.63;100743.78;4947913;28;20047;-81
2023/07/16 03:48:01;;;;;;;1.90;0.85;;;;;;;31.13;23.76;100748.28;4951298;28;20102;-81
2023/07/16 03:50:32;;;;;;;2.45;1.15;;;;;;;31.02;23.50;100751.56;4946356;28;20047;-83
2023/07/16 03:53:03;;;;;;;3.88;1.30;;;;;;;30.91;23.71;100759.31;4949896;28;20058;-79
2023/07/16 03:55:31;;;;;;;2.55;0.98;;;;;;;30.81;24.00;100771.41;4947016;28;20085;-79
2023/07/16 03:58:00;;;;;;;3.80;1.17;;;;;;;30.71;24.18;100762.19;4954260;28;20047;-84
2023/07/16 04:00:31;;;;;;;2.50;1.45;;;;;;;30.63;23.78;100781.31;4952120;28;20043;-82
2023/07/16 04:03:02;;;;;;;3.00;1.42;;;;;;;30.54;24.13;100780.00;4949680;28;20054;-80
2023/07/16 04:05:30;;;;;;;3.22;1.55;;;;;;;30.47;23.58;100787.47;4951210;28;20070;-84
2023/07/16 04:07:59;;;;;;;2.22;1.42;;;;;;;30.45;23.68;100784.00;4949066;28;20145;-85
2023/07/16 04:10:27;;;;;;;2.63;1.90;;;;;;;30.40;24.07;100787.88;4946643;28;20139;-82
2023/07/16 04:12:56;;;;;;;3.25;1.70;;;;;;;30.32;23.28;100787.41;4950601;28;20059;-79
2023/07/16 04:15:24;;;;;;;6.40;2.00;;;;;;;30.28;23.63;100800.03;4949081;28;20066;-85
2023/07/16 04:17:53;;;;;;;7.70;2.35;;;;;;;30.19;23.83;100793.38;4950989;28;20051;-86
2023/07/16 04:20:24;;;;;;;2.45;1.58;;;;;;;30.11;23.97;100800.03;4945046;28;20051;-83
2023/07/16 04:22:54;;;;;;;2.70;1.65;;;;;;;30.05;23.82;100806.53;4951335;28;20070;-81
2023/07/16 04:25:23;;;;;;;3.60;1.95;;;;;;;29.97;24.37;100814.09;4951870;28;20646;-78
2023/07/16 04:27:52;;;;;;;2.28;1.83;;;;;;;29.91;23.97;100809.06;4949255;28;20053;-84
2023/07/16 04:30:20;;;;;;;3.38;2.00;;;;;;;29.85;24.35;100821.75;4949514;28;20054;-78
2023/07/16 04:32:49;;;;;;;2.50;2.00;;;;;;;29.81;24.36;100822.00;4949759;28;20051;-84
2023/07/16 04:35:18;;;;;;;3.88;1.90;;;;;;;29.76;24.57;100829.38;4950699;28;20529;-80
2023/07/16 04:37:48;;;;;;;3.85;2.58;;;;;;;29.69;24.48;100828.81;4951877;28;20051;-82
2023/07/16 04:40:16;;;;;;;2.88;2.10;;;;;;;29.63;24.43;100829.06;4951875;28;20106;-83
2023/07/16 04:42:45;;;;;;;2.97;2.00;;;;;;;29.56;24.51;100838.28;4951357;28;20501;-83
2023/07/16 04:45:14;;;;;;;4.03;2.17;;;;;;;29.50;24.49;100838.59;4949933;28;20560;-83
2023/07/16 04:47:43;;;;;;;4.60;2.13;;;;;;;29.40;24.55;100847.03;4952012;28;20102;-82
2023/07/16 04:50:12;;;;;;;7.25;2.15;;;;;;;29.35;25.67;100848.19;4953543;28;20051;-82
2023/07/16 04:52:40;;;;;;;2.90;1.85;;;;;;;29.28;25.41;100852.94;4952851;28;20688;-79
2023/07/16 04:55:12;;;;;;;3.38;2.25;;;;;;;29.20;24.73;100853.28;4952263;28;20048;-80
2023/07/16 04:57:40;;;;;;;4.35;2.17;;;;;;;29.15;24.82;100851.78;4951507;28;20047;-82
2023/07/16 05:00:10;;;;;;;3.13;2.40;;;;;;;29.11;24.71;100851.06;4952276;28;20046;-79
2023/07/16 05:02:38;;;;;;;4.40;2.63;;;;;;;29.03;24.83;100858.53;4951005;28;20424;-82
2023/07/16 05:05:08;;;;;;;3.05;2.28;;;;;;;28.98;26.10;100866.72;4952432;28;20050;-82
2023/07/16 05:07:36;;;;;;;4.22;2.30;;;;;;;28.89;27.60;100867.13;4952630;28;20078;-84
2023/07/16 05:10:07;;;;;;;3.45;2.17;;;;;;;28.78;26.22;100869.41;4951197;28;20051;-83
2023/07/16 05:12:38;;;;;;;4.05;2.97;;;;;;;28.68;25.35;100882.28;4951198;28;20555;-81
2023/07/16 05:15:07;;;;;;;2.72;2.20;;;;;;;28.61;25.80;100876.34;4950054;28;20091;-80
2023/07/16 05:17:36;;;;;;;2.70;2.33;;;;;;;28.54;26.21;100877.56;4951149;28;20099;-81
2023/07/16 05:20:05;;;;;;;4.68;3.10;;;;;;;28.43;25.46;100885.13;4951030;28;20058;-77
2023/07/16 05:22:34;;;;;;;3.30;2.50;;;;;;;28.34;26.38;100874.84;4954364;28;20492;-77
2023/07/16 05:25:03;;;;;;;4.90;2.72;;;;;;;28.21;26.93;100885.16;4955350;28;20047;-82
2023/07/16 05:27:31;;;;;;;3.45;2.50;;;;;;;28.10;27.38;100887.38;4946322;28;20047;-79
2023/07/16 05:30:02;;;;;;;4.63;2.58;;;;;;;27.97;26.57;100889.69;4952794;28;20101;-82
2023/07/16 05:32:32;;;;;;;3.90;2.58;;;;;;;27.88;26.66;100887.41;4950634;28;20492;-77
2023/07/16 05:35:01;;;;;;;3.65;2.80;;;;;;;27.78;26.59;100885.06;4950269;28;20607;-78
2023/07/16 05:37:29;;;;;;;3.70;2.63;;;;;;;27.71;27.02;100891.56;4951460;28;20098;-84
2023/07/16 05:39:58;;;;;;;21.35;3.30;;;;;;;27.65;27.02;100894.47;4952570;28;20051;-79
2023/07/16 05:42:34;;;;;;;3.03;2.60;;;;;;;27.57;27.06;100888.59;4954056;28;20084;-82
2023/07/16 05:45:04;;;;;;;6.50;2.78;;;;;;;27.49;27.82;100890.69;4951535;28;20085;-78
2023/07/16 05:47:33;;;;;;;3.78;2.53;;;;;;;27.38;27.85;100885.78;4950359;28;20056;-81
2023/07/16 05:50:01;;;;;;;4.95;2.88;;;;;;;27.27;27.95;100885.31;4951615;28;20047;-84
2023/07/16 05:52:30;;;;;;;4.55;2.95;;;;;;;27.18;27.89;100886.50;4954064;28;20515;-84
2023/07/16 05:54:59;;;;;;;2.78;2.42;;;;;;;27.11;28.19;100895.63;4950659;28;20078;-83
2023/07/16 05:57:34;;;;;;;3.83;2.92;;;;;;;27.04;28.29;100892.34;4952619;28;20754;-79
2023/07/16 06:00:06;;;;;;;4.25;3.00;;;;;;;27.00;28.33;100887.19;4951281;28;20066;-78
2023/07/16 06:02:35;;;;;;;3.45;2.65;;;;;;;26.93;28.61;100895.38;4951100;28;20051;-81
2023/07/16 06:05:04;;;;;;;4.13;3.10;;;;;;;26.88;28.88;100900.00;4951609;28;20061;-81
2023/07/16 06:07:32;;;;;;;3.97;2.53;;;;;;;26.84;28.52;100898.34;4952023;28;20051;-80
2023/07/16 06:10:01;;;;;;;4.15;2.83;;;;;;;26.78;28.67;100900.38;4949148;28;20062;-83
2023/07/16 06:12:30;;;;;;;4.00;2.50;;;;;;;26.72;28.32;100904.13;4952586;28;20051;-87
2023/07/16 06:15:00;;;;;;;3.83;2.60;;;;;;;26.68;28.67;100916.63;4954044;28;20059;-82
2023/07/16 06:17:33;;;;;;;4.03;2.70;;;;;;;26.64;29.27;100908.81;4935002;29;20059;-83
2023/07/16 06:20:02;;;;;;;4.25;2.47;;;;;;;26.47;29.35;100899.63;4933377;29;20055;-80
2023/07/16 06:22:30;;;;;;;3.55;2.38;;;;;;;26.42;30.28;100912.19;4934822;29;20057;-84
2023/07/16 06:24:59;;;;;;;3.15;2.78;;;;;;;26.36;30.11;100915.03;4934025;29;20799;-82
2023/07/16 06:27:31;;;;;;;3.97;2.30;;;;;;;26.32;29.95;100916.09;4934953;29;20051;-82
2023/07/16 06:30:00;;;;;;;3.00;2.40;;;;;;;26.26;30.17;100926.88;4934078;29;20552;-84
2023/07/16 06:32:30;;;;;;;4.32;2.53;;;;;;;26.20;29.95;100922.63;4936287;29;20139;-78
2023/07/16 06:34:58;;;;;;;3.17;2.03;;;;;;;26.14;29.87;100922.84;4938395;29;20044;-87
2023/07/16 06:37:27;;;;;;;3.38;2.30;;;;;;;26.12;30.48;100941.47;4936014;29;20130;-83
2023/07/16 06:39:58;;;;;;;3.03;2.40;;;;;;;26.09;30.55;100928.31;4934615;29;20051;-82
2023/07/16 06:42:27;;;;;;;3.03;2.33;;;;;;;26.07;30.98;100932.78;4934547;29;20118;-78
2023/07/16 06:44:55;;;;;;;3.08;2.35;;;;;;;26.03;30.60;100946.19;4934184;29;20080;-82
2023/07/16 06:47:24;;;;;;;2.88;2.22;;;;;;;25.97;30.63;100941.94;4933687;29;20051;-80
2023/07/16 06:49:56;;;;;;;2.60;2.30;;;;;;;25.93;30.97;100942.97;4937666;29;20068;-80
2023/07/16 06:52:27;;;;;;;3.08;2.50;;;;;;;25.86;30.94;100941.38;4935435;29;20039;-83
2023/07/16 06:54:55;;;;;;;4.18;2.38;;;;;;;25.77;31.21;100939.00;4937982;29;20051;-82
2023/07/16 06:57:24;;;;;;;3.85;2.15;;;;;;;25.80;31.20;100944.22;4935812;29;20044;-85
2023/07/16 06:59:52;;;;;;;3.33;2.50;;;;;;;25.76;31.32;100951.41;4932818;29;20115;-80
2023/07/16 07:02:23;;;;;;;6.15;2.83;;;;;;;25.71;30.98;100946.22;4930958;29;20047;-80
2023/07/16 07:04:54;;;;;;;3.60;2.80;;;;;;;25.70;31.03;100949.81;4935563;29;20055;-78
2023/07/16 07:07:23;;;;;;;3.22;2.30;;;;;;;25.69;30.71;100942.75;4932081;29;20051;-81
2023/07/16 07:09:52;;;;;;;3.42;2.53;;;;;;;25.67;31.44;100944.59;4931316;29;20419;-84
2023/07/16 07:12:21;;;;;;;2.95;2.42;;;;;;;25.64;31.26;100952.63;4931487;29;20498;-78
2023/07/16 07:14:49;;;;;;;4.22;2.80;;;;;;;25.59;31.54;100956.34;4932691;29;20540;-86
2023/07/16 07:17:18;;;;;;;5.32;2.72;;;;;;;25.54;31.16;100959.13;4950746;28;20745;-84
2023/07/16 07:19:46;;;;;;;2.75;2.25;;;;;;;25.50;31.58;100958.34;4950298;28;20047;-79
2023/07/16 07:22:17;;;;;;;6.03;2.47;;;;;;;25.46;32.14;100950.53;4953694;28;20057;-83
2023/07/16 07:24:45;;;;;;;3.38;2.55;;;;;;;25.31;32.39;100943.03;4953280;28;20110;-80
2023/07/16 07:27:14;;;;;;;4.93;2.35;;;;;;;25.33;31.96;100955.31;4953189;28;20058;-86
2023/07/16 07:29:42;;;;;;;3.47;2.60;;;;;;;25.28;32.04;100952.78;4952427;28;20520;-85
2023/07/16 07:32:11;;;;;;;3.47;2.63;;;;;;;25.23;33.05;100949.41;4951835;28;20051;-86
2023/07/16 07:34:41;;;;;;;3.25;2.20;;;;;;;25.18;32.79;100951.31;4947183;28;20592;-83
2023/07/16 07:37:17;;;;;;;3.10;2.42;;;;;;;25.13;32.84;100954.97;4952922;28;20051;-84
2023/07/16 07:39:49;;;;;;;4.60;2.60;;;;;;;25.08;33.35;100947.16;4951257;28;20054;-82
2023/07/16 07:42:18;;;;;;;6.00;2.53;;;;;;;25.03;33.77;100957.00;4955349;28;20123;-86
2023/07/16 07:44:46;;;;;;;3.08;2.30;;;;;;;24.96;33.20;100960.72;4951316;28;20047;-84
2023/07/16 07:47:15;;;;;;;3.53;2.70;;;;;;;24.90;33.70;100955.59;4949674;28;20051;-79
2023/07/16 07:49:44;;;;;;;2.90;2.20;;;;;;;24.77;33.16;100957.72;4950122;28;20089;-88
2023/07/16 07:52:12;;;;;;;2.67;2.25;;;;;;;24.71;33.05;100958.72;4953679;28;20043;-83
2023/07/16 07:54:41;;;;;;;2.97;2.13;;;;;;;24.65;33.32;100967.72;4949671;28;20043;-85
2023/07/16 07:57:11;;;;;;;2.72;2.35;;;;;;;24.59;33.68;100967.00;4950940;28;20047;-82
2023/07/16 07:59:40;;;;;;;3.03;2.30;;;;;;;24.52;33.72;100965.41;4949293;28;20047;-87
2023/07/16 08:02:08;;;;;;;3.17;2.38;;;;;;;24.47;34.54;100973.47;4952932;28;20810;-82
2023/07/16 08:04:37;;;;;;;7.93;2.75;;;;;;;24.38;34.48;100977.16;4953212;28;20706;-85
2023/07/16 08:07:07;;;;;;;3.08;2.55;;;;;;;24.36;34.39;100981.63;4951079;28;20063;-85
2023/07/16 08:09:35;;;;;;;3.67;2.17;;;;;;;24.30;35.06;100976.47;4951421;28;20043;-85
2023/07/16 08:12:04;;;;;;;3.38;2.33;;;;;;;24.26;35.60;100985.41;4950397;28;20051;-85
2023/07/16 08:14:34;;;;;;;4.47;2.28;;;;;;;24.24;34.99;100981.91;4952706;28;20051;-84
2023/07/16 08:17:03;;;;;;;3.25;2.45;;;;;;;24.17;35.16;100975.91;4957303;28;20142;-86
2023/07/16 08:19:31;;;;;;;3.38;2.67;;;;;;;24.09;36.39;100985.78;4963415;28;20066;-85
2023/07/16 08:22:00;;;;;;;3.33;2.33;;;;;;;24.00;36.87;100976.28;4950909;28;20055;-87
2023/07/16 08:24:29;;;;;;;4.13;2.38;;;;;;;23.90;35.57;100977.41;4955263;28;20092;-84
2023/07/16 08:26:57;;;;;;;3.35;2.50;;;;;;;23.83;35.99;100976.66;4930756;28;20062;-83
2023/07/16 08:29:26;;;;;;;2.75;2.22;;;;;;;23.74;36.34;100982.13;4958531;28;20058;-84
2023/07/16 08:31:57;;;;;;;3.03;2.28;;;;;;;23.63;36.71;100984.97;4952230;28;20059;-85
2023/07/16 08:34:26;;;;;;;2.85;2.30;;;;;;;23.58;36.70;100983.34;4954202;28;20956;-86
2023/07/16 08:36:54;;;;;;;3.22;2.40;;;;;;;23.52;37.15;100981.69;4951292;28;20074;-85
2023/07/16 08:39:22;;;;;;;3.08;2.30;;;;;;;23.50;37.30;100982.63;4953251;28;20058;-85
2023/07/16 08:41:51;;;;;;;3.50;2.40;;;;;;;23.44;38.35;100988.03;4954312;28;20058;-84
2023/07/16 08:44:21;;;;;;;4.97;2.50;;;;;;;23.38;38.33;100989.00;4951482;28;20545;-84
2023/07/16 08:46:50;;;;;;;2.63;1.90;;;;;;;23.32;38.09;100989.13;4954848;28;20382;-82
2023/07/16 08:49:21;;;;;;;2.80;2.20;;;;;;;23.25;38.17;100992.78;4955697;28;20082;-83
2023/07/16 08:51:50;;;;;;;4.37;2.67;;;;;;;23.20;39.51;100991.13;4954706;28;20075;-86
2023/07/16 08:54:19;;;;;;;4.38;2.67;;;;;;;23.12;40.21;100994.81;4955382;28;20043;-84
2023/07/16 08:56:49;;;;;;;2.55;1.98;;;;;;;23.04;39.63;100994.94;4956033;28;20059;-84
2023/07/16 08:59:17;;;;;;;2.72;2.35;;;;;;;22.99;40.34;100991.50;4951468;28;20501;-83
2023/07/16 09:01:48;;;;;;;2.97;2.30;;;;;;;22.91;39.96;100991.63;4952336;28;20057;-86
2023/07/16 09:04:16;;;;;;;2.83;2.15;;;;;;;22.84;40.45;100991.75;4951948;28;20111;-85
2023/07/16 09:06:47;;;;;;;2.72;2.15;;;;;;;22.81;41.57;100997.94;4950722;28;20051;-84
2023/07/16 09:09:22;;;;;;;3.08;2.10;;;;;;;22.72;40.51;100993.72;4953871;28;20082;-83
2023/07/16 09:11:51;;;;;;;3.75;1.98;;;;;;;22.69;40.45;100993.75;4946731;28;20067;-87
2023/07/16 09:14:21;;;;;;;3.00;2.30;;;;;;;22.63;40.80;100988.59;4955758;28;20099;-85
2023/07/16 09:16:53;;;;;;;3.13;2.15;;;;;;;22.54;40.92;100994.91;4952398;28;20086;-87
2023/07/16 09:19:22;;;;;;;3.00;2.03;;;;;;;22.52;40.53;100982.63;4952192;28;20050;-86
2023/07/16 09:21:53;;;;;;;3.88;2.10;;;;;;;22.49;40.57;100995.84;4958804;28;20055;-84
2023/07/16 09:24:22;;;;;;;2.47;2.10;;;;;;;22.49;41.49;100996.72;4954880;28;20051;-84
2023/07/16 09:26:53;;;;;;;2.95;2.20;;;;;;;22.50;40.62;100995.84;4956842;28;20269;-86
2023/07/16 09:29:22;;;;;;;4.57;2.40;;;;;;;22.52;41.15;100995.81;4968343;28;20046;-84
2023/07/16 09:31:57;;;;;;;3.90;2.25;;;;;;;22.52;40.73;100990.53;4960644;28;20042;-86
2023/07/16 09:34:28;;;;;;;3.28;2.20;;;;;;;22.48;41.89;100997.63;4972680;28;20063;-86
2023/07/16 09:37:02;;;;;;;2.80;2.00;;;;;;;22.43;41.65;100995.97;4976695;28;20130;-87
2023/07/16 09:39:33;;;;;;;3.33;2.05;;;;;;;22.40;41.78;100996.00;4963812;28;20040;-86
2023/07/16 09:42:03;;;;;;;3.35;2.35;;;;;;;22.37;42.14;100992.50;4957666;28;20055;-87
2023/07/16 09:44:34;;;;;;;4.10;2.30;;;;;;;22.32;41.23;100994.34;4953674;28;20050;-84
2023/07/16 09:47:02;;;;;;;3.92;2.10;;;;;;;22.23;40.20;100998.91;4951487;28;20055;-86
2023/07/16 09:49:31;;;;;;;2.95;2.00;;;;;;;22.13;40.09;100995.50;4952669;28;20691;-82
2023/07/16 09:52:03;;;;;;;3.45;2.00;;;;;;;22.03;40.27;100993.88;4947531;28;20442;-86
2023/07/16 09:54:37;;;;;;;6.53;2.50;;;;;;;22.00;41.28;101002.69;4951862;28;20051;-88
2023/07/16 09:57:08;;;;;;;4.30;2.20;;;;;;;21.99;40.96;101005.34;4955802;28;20051;-85
2023/07/16 09:59:38;;;;;;;3.33;2.05;;;;;;;21.95;40.81;101004.53;4952583;28;20055;-85
2023/07/16 10:02:08;;;;;;;2.80;1.70;;;;;;;21.92;41.30;101000.19;4955774;28;20051;-84
2023/07/16 10:04:43;;;;;;;2.58;2.28;;;;;;;21.89;42.28;101000.19;4959709;28;20039;-87
2023/07/16 10:07:23;;;;;;;2.97;2.00;;;;;;;21.85;42.06;101001.16;4956674;28;20658;-86
2023/07/16 10:09:56;;;;;;;4.38;2.20;;;;;;;21.80;41.59;101002.94;4953348;28;20047;-86
2023/07/16 10:12:28;;;;;;;3.45;2.25;;;;;;;21.75;41.19;101002.16;4953722;28;20745;-87
2023/07/16 10:14:58;;;;;;;4.07;2.20;;;;;;;21.69;41.67;100992.56;4956286;28;20178;-86
2023/07/16 10:17:34;;;;;;;4.55;2.10;;;;;;;21.65;41.92;100995.28;4955455;28;20123;-84
2023/07/16 10:20:08;;;;;;;2.15;1.65;;;;;;;21.61;41.26;100998.81;4954662;28;20047;-86
2023/07/16 10:22:41;;;;;;;2.65;1.63;;;;;;;21.53;41.45;100997.16;4952395;28;20446;-87
2023/07/16 10:25:12;;;;;;;1.63;1.35;;;;;;;21.45;41.95;101003.41;4951442;28;20109;-85
2023/07/16 10:27:40;;;;;;;3.58;2.05;;;;;;;21.38;42.71;100997.28;4949621;28;20114;-88
2023/07/16 10:30:09;;;;;;;2.92;1.70;;;;;;;21.34;42.69;101006.97;4956285;28;20259;-85
2023/07/16 10:32:38;;;;;;;2.03;1.70;;;;;;;21.30;42.54;101002.66;4954655;28;20051;-88
2023/07/16 10:35:09;;;;;;;2.53;1.50;;;;;;;21.26;42.51;101003.56;4955825;28;20059;-87
2023/07/16 10:37:40;;;;;;;2.38;1.90;;;;;;;21.19;43.67;101001.91;4958634;28;20050;-87
2023/07/16 10:40:13;;;;;;;6.10;2.30;;;;;;;21.15;43.74;101004.56;4961011;28;20493;-87
2023/07/16 10:42:44;;;;;;;2.25;1.63;;;;;;;21.10;43.58;101007.25;4955779;28;20125;-87
2023/07/16 10:45:13;;;;;;;4.60;1.70;;;;;;;21.03;43.49;101011.69;4953469;28;20083;-87
2023/07/16 10:47:55;;;;;;;4.15;2.00;;;;;;;21.00;43.76;101005.59;4954721;28;20053;-87
2023/07/16 10:50:23;;;;;;;3.13;2.07;;;;;;;20.96;43.83;101014.38;4959567;28;20051;-88
2023/07/16 10:52:55;;;;;;;3.88;1.50;;;;;;;20.90;43.81;101010.06;4953482;28;20141;-86
2023/07/16 10:55:24;;;;;;;3.38;1.83;;;;;;;20.86;44.43;101009.19;4956219;28;20126;-85
2023/07/16 10:57:56;;;;;;;2.65;2.05;;;;;;;20.82;45.22;101011.88;4955653;28;20078;-87
2023/07/16 11:00:25;;;;;;;4.90;1.83;;;;;;;20.79;44.59;101011.91;4954236;28;20602;-86
2023/07/16 11:02:54;;;;;;;4.05;2.40;;;;;;;20.76;44.29;101011.94;4949080;28;20535;-86
2023/07/16 11:05:23;;;;;;;4.22;1.98;;;;;;;20.69;44.49;101009.34;4953527;28;20078;-86
2023/07/16 11:07:51;;;;;;;3.63;1.88;;;;;;;20.58;44.53;101000.69;4956387;28;20047;-86
2023/07/16 11:10:25;;;;;;;3.30;1.85;;;;;;;20.62;45.35;101009.44;4953257;28;20473;-87
2023/07/16 11:12:55;;;;;;;4.57;1.85;;;;;;;20.56;44.91;101015.59;4955567;28;20075;-86
2023/07/16 11:15:33;;;;;;;3.00;1.80;;;;;;;20.53;45.18;101014.72;4957470;28;20617;-83
2023/07/16 11:18:02;;;;;;;3.50;2.05;;;;;;;20.47;45.23;101020.88;4955551;28;20086;-86
2023/07/16 11:20:32;;;;;;;4.75;2.22;;;;;;;20.42;45.18;101012.16;4956756;28;20631;-85
2023/07/16 11:23:01;;;;;;;3.30;2.08;;;;;;;20.37;45.68;101020.09;4953806;28;20074;-85
2023/07/16 11:25:31;;;;;;;4.35;1.63;;;;;;;20.32;45.09;101015.72;4959586;28;20671;-87
2023/07/16 11:28:01;;;;;;;2.75;2.08;;;;;;;20.28;45.67;101010.50;4944108;28;20504;-83
2023/07/16 11:30:29;;;;;;;2.13;1.52;;;;;;;20.25;44.84;101014.91;4952320;28;20081;-83
2023/07/16 11:33:00;;;;;;;3.00;1.80;;;;;;;20.22;44.75;101014.91;4953820;28;20047;-87
2023/07/16 11:35:29;;;;;;;3.78;1.95;;;;;;;20.18;45.47;101014.09;4951483;28;20507;-82